createdAt,value
2022-09-27T00:02:59.793Z,98965.34
2022-09-27T00:06:05.323Z,98963.09
2022-09-27T00:09:07.922Z,98959.06
2022-09-27T00:12:10.607Z,98955.94
2022-09-27T00:15:15.239Z,98951.47
2022-09-27T00:18:17.877Z,98958.06
2022-09-27T00:21:20.582Z,98951.91
2022-09-27T00:24:24.262Z,98947.38
2022-09-27T00:27:28.288Z,98941.97
2022-09-27T00:30:32.230Z,98940.59
2022-09-27T00:33:34.807Z,98932.47
2022-09-27T00:36:37.479Z,98933.31
2022-09-27T00:39:40.099Z,98936.59
2022-09-27T00:42:42.734Z,98935.28
2022-09-27T00:45:51.649Z,98926.81
2022-09-27T00:49:05.073Z,98921.84
2022-09-27T00:52:14.759Z,98920.38
2022-09-27T00:55:22.753Z,98919.88
2022-09-27T00:58:31.189Z,98913.19
2022-09-27T01:01:35.564Z,98912.34
2022-09-27T01:04:40.442Z,98906.41
2022-09-27T01:07:43.037Z,98915.03
2022-09-27T01:10:54.625Z,98905.09
2022-09-27T01:14:11.304Z,98902.94
2022-09-27T01:17:27.644Z,98888.94
2022-09-27T01:21:03.214Z,98896.19
2022-09-27T01:24:43.294Z,98888.03
2022-09-27T01:28:09.463Z,98890.84
2022-09-27T01:31:22.362Z,98892.88
2022-09-27T01:34:30.486Z,98888.38
2022-09-27T01:37:39.959Z,98885.56
2022-09-27T01:40:50.975Z,98878.78
2022-09-27T01:43:58.670Z,98880.63
2022-09-27T01:47:06.221Z,98869.91
2022-09-27T01:50:14.444Z,98867.00
2022-09-27T01:53:22.267Z,98867.56
2022-09-27T01:56:31.910Z,98866.34
2022-09-27T01:59:39.602Z,98864.31
2022-09-27T02:02:47.178Z,98856.81
2022-09-27T02:05:54.500Z,98857.47
2022-09-27T02:09:02.747Z,98854.47
2022-09-27T02:12:10.161Z,98853.31
2022-09-27T02:15:16.525Z,98848.06
2022-09-27T02:18:29.529Z,98852.22
2022-09-27T02:21:42.118Z,98851.81
2022-09-27T02:24:51.658Z,98848.44
2022-09-27T02:28:00.345Z,98843.75
2022-09-27T02:31:03.204Z,98834.50
2022-09-27T02:34:11.764Z,98837.53
2022-09-27T02:37:14.770Z,98836.97
2022-09-27T02:40:17.482Z,98836.03
2022-09-27T02:43:22.325Z,98837.59
2022-09-27T02:46:53.483Z,98833.66
2022-09-27T02:50:09.777Z,98838.97
2022-09-27T02:53:23.262Z,98834.41
2022-09-27T02:56:35.509Z,98833.56
2022-09-27T02:59:49.616Z,98832.00
2022-09-27T03:03:00.519Z,98820.38
2022-09-27T03:06:09.221Z,98819.94
2022-09-27T03:09:18.571Z,98822.09
2022-09-27T03:12:25.987Z,98826.09
2022-09-27T03:15:28.713Z,98816.16
2022-09-27T03:18:31.384Z,98808.91
2022-09-27T03:21:35.742Z,98803.94
2022-09-27T03:24:38.409Z,98811.94
2022-09-27T03:27:41.077Z,98810.66
2022-09-27T03:30:45.443Z,98806.78
2022-09-27T03:33:48.267Z,98800.78
2022-09-27T03:36:52.684Z,98794.53
2022-09-27T03:39:55.428Z,98796.56
2022-09-27T03:42:58.122Z,98798.72
2022-09-27T03:46:00.809Z,98793.06
2022-09-27T03:49:03.476Z,98787.91
2022-09-27T03:52:07.514Z,98794.34
2022-09-27T03:55:11.063Z,98785.25
2022-09-27T03:58:13.725Z,98783.97
2022-09-27T04:01:16.770Z,98784.78
2022-09-27T04:04:19.386Z,98779.78
2022-09-27T04:07:24.022Z,98779.75
2022-09-27T04:10:27.024Z,98774.00
2022-09-27T04:13:29.603Z,98775.59
2022-09-27T04:16:33.816Z,98777.63
2022-09-27T04:19:36.844Z,98774.63
2022-09-27T04:22:44.053Z,98777.91
2022-09-27T04:25:46.609Z,98775.34
2022-09-27T04:28:54.576Z,98780.66
2022-09-27T04:31:57.557Z,98764.00
2022-09-27T04:35:17.626Z,98772.22
2022-09-27T04:38:23.310Z,98774.59
2022-09-27T04:41:27.033Z,98770.41
2022-09-27T04:44:29.609Z,98769.53
2022-09-27T04:47:33.019Z,98774.50
2022-09-27T04:50:36.582Z,98771.13
2022-09-27T04:53:40.890Z,98774.28
2022-09-27T04:56:43.460Z,98771.34
2022-09-27T04:59:46.042Z,98782.06
2022-09-27T05:02:49.211Z,98768.34
2022-09-27T05:05:51.854Z,98767.28
2022-09-27T05:08:55.819Z,98771.63
2022-09-27T05:11:58.622Z,98769.66
2022-09-27T05:15:01.219Z,98764.97
2022-09-27T05:18:03.826Z,98771.13
2022-09-27T05:21:06.668Z,98772.09
2022-09-27T05:24:10.585Z,98772.06
2022-09-27T05:27:18.445Z,98777.63
2022-09-27T05:30:21.032Z,98774.00
2022-09-27T05:33:23.645Z,98778.53
2022-09-27T05:36:26.241Z,98774.53
2022-09-27T05:39:30.470Z,98771.13
2022-09-27T05:42:33.815Z,98774.69
2022-09-27T05:45:36.688Z,98781.69
2022-09-27T05:48:39.318Z,98784.13
2022-09-27T05:51:42.015Z,98789.59
2022-09-27T05:54:45.934Z,98781.53
2022-09-27T05:57:59.420Z,98784.78
2022-09-27T06:01:02.073Z,98783.94
2022-09-27T06:04:05.745Z,98786.03
2022-09-27T06:07:08.318Z,98784.88
2022-09-27T06:10:12.235Z,98790.06
2022-09-27T06:13:16.689Z,98788.88
2022-09-27T06:16:19.369Z,98785.13
2022-09-27T06:19:22.137Z,98792.38
2022-09-27T06:22:24.895Z,98790.25
2022-09-27T06:25:28.854Z,98791.31
2022-09-27T06:28:31.497Z,98786.06
2022-09-27T06:31:34.097Z,98790.91
2022-09-27T06:34:36.652Z,98789.88
2022-09-27T06:37:39.404Z,98793.31
2022-09-27T06:40:45.477Z,98800.31
2022-09-27T06:43:49.438Z,98789.81
2022-09-27T06:46:52.822Z,98796.59
2022-09-27T06:49:55.382Z,98794.22
2022-09-27T06:52:57.977Z,98801.50
2022-09-27T06:56:02.277Z,98797.28
2022-09-27T06:59:22.482Z,98799.75
2022-09-27T07:02:25.627Z,98807.13
2022-09-27T07:05:29.692Z,98806.53
2022-09-27T07:08:32.569Z,98813.53
2022-09-27T07:11:37.407Z,98811.59
2022-09-27T07:14:40.077Z,98815.78
2022-09-27T07:17:42.693Z,98815.94
2022-09-27T07:20:45.294Z,98825.97
2022-09-27T07:23:48.650Z,98822.94
2022-09-27T07:26:52.556Z,98824.16
2022-09-27T07:29:55.432Z,98827.78
2022-09-27T07:32:59.910Z,98832.22
2022-09-27T07:36:08.204Z,98832.25
2022-09-27T07:39:11.137Z,98840.22
2022-09-27T07:42:15.095Z,98832.19
2022-09-27T07:45:17.857Z,98836.34
2022-09-27T07:48:20.503Z,98844.09
2022-09-27T07:51:23.134Z,98847.38
2022-09-27T07:54:25.749Z,98850.97
2022-09-27T07:57:30.006Z,98852.19
2022-09-27T08:00:32.595Z,98846.88
2022-09-27T08:03:35.254Z,98850.63
2022-09-27T08:06:37.872Z,98857.38
2022-09-27T08:09:40.528Z,98858.59
2022-09-27T08:12:46.256Z,98858.09
2022-09-27T08:15:50.753Z,98862.09
2022-09-27T08:18:53.932Z,98863.44
2022-09-27T08:21:58.885Z,98863.69
2022-09-27T08:25:01.708Z,98873.34
2022-09-27T08:28:06.151Z,98877.91
2022-09-27T08:31:08.789Z,98884.19
2022-09-27T08:34:11.485Z,98884.69
2022-09-27T08:37:14.249Z,98891.97
2022-09-27T08:40:18.238Z,98888.56
2022-09-27T08:43:36.585Z,98899.44
2022-09-27T08:46:50.939Z,98889.44
2022-09-27T08:50:00.437Z,98891.72
2022-09-27T08:53:08.621Z,98897.28
2022-09-27T08:56:13.417Z,98901.72
2022-09-27T08:59:21.968Z,98900.63
2022-09-27T09:02:26.418Z,98906.19
2022-09-27T09:05:33.439Z,98906.47
2022-09-27T09:08:47.441Z,98907.44
2022-09-27T09:12:18.884Z,98907.44
2022-09-27T09:15:54.204Z,98909.25
2022-09-27T09:19:10.458Z,98912.88
2022-09-27T09:22:28.930Z,98912.53
2022-09-27T09:25:42.197Z,98915.63
2022-09-27T09:29:01.811Z,98917.59
2022-09-27T09:32:18.682Z,98918.56
2022-09-27T09:35:25.738Z,98925.06
2022-09-27T09:38:38.179Z,98924.56
2022-09-27T09:41:47.763Z,98923.25
2022-09-27T09:44:56.889Z,98928.22
2022-09-27T09:48:06.321Z,98929.16
2022-09-27T09:51:16.234Z,98929.03
2022-09-27T09:54:25.531Z,98935.09
2022-09-27T09:57:34.825Z,98933.03
2022-09-27T10:00:39.933Z,98932.06
2022-09-27T10:03:44.192Z,98931.59
2022-09-27T10:06:47.207Z,98935.19
2022-09-27T10:09:50.549Z,98935.97
2022-09-27T10:12:53.474Z,98940.66
2022-09-27T10:16:01.137Z,98936.06
2022-09-27T10:19:06.822Z,98935.72
2022-09-27T10:22:17.772Z,98938.63
2022-09-27T10:25:20.501Z,98953.84
2022-09-27T10:28:37.317Z,98943.47
2022-09-27T10:31:42.791Z,98945.41
2022-09-27T10:34:46.851Z,98951.34
2022-09-27T10:37:49.573Z,98956.03
2022-09-27T10:40:53.835Z,98946.84
2022-09-27T10:43:56.601Z,98944.19
2022-09-27T10:47:01.972Z,98947.34
2022-09-27T10:50:08.058Z,98950.84
2022-09-27T10:53:15.542Z,98958.34
2022-09-27T10:56:23.958Z,98957.50
2022-09-27T10:59:30.571Z,98957.13
2022-09-27T11:02:36.692Z,98968.13
2022-09-27T11:05:41.476Z,98961.09
2022-09-27T11:08:45.405Z,98967.75
2022-09-27T11:11:48.079Z,98971.03
2022-09-27T11:14:57.227Z,98983.22
2022-09-27T11:18:08.058Z,98977.06
2022-09-27T11:21:23.673Z,98976.59
2022-09-27T11:24:41.594Z,98975.88
2022-09-27T11:28:00.380Z,98979.25
2022-09-27T11:31:18.833Z,98974.06
2022-09-27T11:34:41.671Z,98981.66
2022-09-27T11:37:58.346Z,98976.84
2022-09-27T11:41:15.930Z,98972.47
2022-09-27T11:44:34.982Z,98970.53
2022-09-27T11:47:46.069Z,98971.84
2022-09-27T11:51:14.382Z,98975.59
2022-09-27T11:54:34.766Z,98975.75
2022-09-27T11:57:42.911Z,98971.91
2022-09-27T12:00:58.190Z,98969.59
2022-09-27T12:04:22.118Z,98972.03
2022-09-27T12:07:37.929Z,98977.09
2022-09-27T12:10:47.410Z,98981.66
2022-09-27T12:13:55.799Z,98986.03
2022-09-27T12:16:58.893Z,98986.75
2022-09-27T12:20:07.913Z,98985.28
2022-09-27T12:23:17.661Z,98993.31
2022-09-27T12:26:26.260Z,98981.63
2022-09-27T12:29:33.780Z,98983.91
2022-09-27T12:32:44.775Z,98986.53
2022-09-27T12:35:51.432Z,98987.38
2022-09-27T12:39:02.454Z,98987.38
2022-09-27T12:42:17.367Z,98992.06
2022-09-27T12:45:28.127Z,98990.97
2022-09-27T12:48:41.567Z,98988.22
2022-09-27T12:51:48.835Z,98986.97
2022-09-27T12:55:04.352Z,98979.06
2022-09-27T12:58:34.257Z,98989.66
2022-09-27T13:02:33.802Z,98992.94
2022-09-27T13:06:21.871Z,98992.72
2022-09-27T13:09:39.952Z,98989.66
2022-09-27T13:12:50.650Z,98996.81
2022-09-27T13:15:57.867Z,98992.47
2022-09-27T13:19:02.819Z,99004.50
2022-09-27T13:22:06.031Z,98998.22
2022-09-27T13:25:46.165Z,99014.22
2022-09-27T13:29:03.491Z,99017.84
2022-09-27T13:32:17.313Z,99018.06
2022-09-27T13:35:23.048Z,99026.91
2022-09-27T13:38:25.633Z,99023.38
2022-09-27T13:41:34.983Z,99033.06
2022-09-27T13:44:53.927Z,99037.47
2022-09-27T13:48:00.246Z,99034.81
2022-09-27T13:51:05.389Z,99036.41
2022-09-27T13:54:38.816Z,99040.81
2022-09-27T13:57:47.513Z,99038.97
2022-09-27T14:00:52.612Z,99043.13
2022-09-27T14:04:01.461Z,99045.16
2022-09-27T14:07:05.449Z,99043.91
2022-09-27T14:10:15.433Z,99048.94
2022-09-27T14:13:21.202Z,99051.59
2022-09-27T14:16:24.201Z,99052.09
2022-09-27T14:19:28.884Z,99048.56
2022-09-27T14:22:31.442Z,99053.31
2022-09-27T14:25:34.073Z,99064.44
2022-09-27T14:28:42.253Z,99062.06
2022-09-27T14:31:44.989Z,99063.69
2022-09-27T14:35:04.336Z,99053.03
2022-09-27T14:38:33.125Z,99069.75
2022-09-27T14:41:37.001Z,99073.13
2022-09-27T14:44:45.961Z,99074.34
2022-09-27T14:47:49.326Z,99073.75
2022-09-27T14:51:04.791Z,99080.63
2022-09-27T14:54:21.764Z,99086.19
2022-09-27T14:57:24.414Z,99095.63
2022-09-27T15:00:32.039Z,99092.47
2022-09-27T15:03:42.406Z,99090.66
2022-09-27T15:06:49.464Z,99098.31
2022-09-27T15:09:52.919Z,99098.09
2022-09-27T15:12:59.814Z,99102.94
2022-09-27T15:16:02.881Z,99105.81
2022-09-27T15:19:15.500Z,99107.03
2022-09-27T15:22:24.898Z,99096.63
2022-09-27T15:25:34.746Z,99106.72
2022-09-27T15:28:39.229Z,99100.00
2022-09-27T15:31:42.322Z,99100.38
2022-09-27T15:34:45.091Z,99111.41
2022-09-27T15:37:50.723Z,99103.38
2022-09-27T15:40:59.941Z,99118.13
2022-09-27T15:44:36.176Z,99126.47
2022-09-27T15:47:56.729Z,99120.25
2022-09-27T15:50:59.509Z,99128.38
2022-09-27T15:54:03.330Z,99124.53
2022-09-27T15:57:06.758Z,99117.06
2022-09-27T16:00:14.574Z,99132.69
2022-09-27T16:03:17.054Z,99130.03
2022-09-27T16:06:19.772Z,99133.78
2022-09-27T16:09:23.601Z,99132.78
2022-09-27T16:12:29.963Z,99132.94
2022-09-27T16:15:32.708Z,99134.97
2022-09-27T16:18:35.205Z,99144.13
2022-09-27T16:21:37.704Z,99147.50
2022-09-27T16:24:41.520Z,99147.97
2022-09-27T16:27:44.201Z,99160.25
2022-09-27T16:30:47.815Z,99164.72
2022-09-27T16:33:50.628Z,99167.28
2022-09-27T16:36:53.113Z,99165.78
2022-09-27T16:39:58.115Z,99168.00
2022-09-27T16:43:00.669Z,99175.34
2022-09-27T16:46:08.311Z,99167.81
2022-09-27T16:49:31.292Z,99178.19
2022-09-27T16:52:33.137Z,99184.81
2022-09-27T16:55:37.735Z,99189.47
2022-09-27T16:58:40.204Z,99188.16
2022-09-27T17:01:42.762Z,99190.53
2022-09-27T17:04:45.250Z,99189.09
2022-09-27T17:07:51.281Z,99191.44
2022-09-27T17:10:56.860Z,99199.66
2022-09-27T17:13:59.514Z,99200.03
2022-09-27T17:17:02.050Z,99193.03
2022-09-27T17:20:05.036Z,99199.69
2022-09-27T17:23:07.550Z,99198.41
2022-09-27T17:26:17.009Z,99196.91
2022-09-27T17:29:19.573Z,99201.28
2022-09-27T17:32:24.125Z,99201.28
2022-09-27T17:35:26.703Z,99189.66
2022-09-27T17:38:29.679Z,99203.44
2022-09-27T17:41:39.637Z,99201.94
2022-09-27T17:44:42.471Z,99214.53
2022-09-27T17:48:02.531Z,99198.81
2022-09-27T17:51:05.162Z,99205.47
2022-09-27T17:54:09.910Z,99205.34
2022-09-27T17:57:13.777Z,99216.00
2022-09-27T18:00:16.804Z,99202.00
2022-09-27T18:03:20.008Z,99203.75
2022-09-27T18:06:23.866Z,99201.75
2022-09-27T18:09:27.074Z,99202.59
2022-09-27T18:12:32.919Z,99207.69
2022-09-27T18:15:37.286Z,99203.09
2022-09-27T18:18:42.105Z,99200.34
2022-09-27T18:21:45.096Z,99194.88
2022-09-27T18:24:47.994Z,99205.06
2022-09-27T18:27:53.015Z,99207.00
2022-09-27T18:30:56.286Z,99214.72
2022-09-27T18:33:58.810Z,99200.19
2022-09-27T18:37:01.303Z,99204.75
2022-09-27T18:40:04.014Z,99213.16
2022-09-27T18:43:07.844Z,99216.66
2022-09-27T18:46:34.536Z,99217.06
2022-09-27T18:49:35.033Z,99224.19
2022-09-27T18:52:37.558Z,99226.59
2022-09-27T18:55:41.478Z,99227.50
2022-09-27T18:58:45.617Z,99226.94
2022-09-27T19:01:48.259Z,99224.06
2022-09-27T19:04:50.917Z,99232.53
2022-09-27T19:07:53.678Z,99226.63
2022-09-27T19:10:56.256Z,99236.41
2022-09-27T19:14:00.134Z,99239.06
2022-09-27T19:17:02.655Z,99238.19
2022-09-27T19:20:06.741Z,99239.78
2022-09-27T19:23:09.368Z,99236.84
2022-09-27T19:26:14.170Z,99242.75
2022-09-27T19:29:18.181Z,99252.00
2022-09-27T19:32:20.804Z,99250.81
2022-09-27T19:35:23.350Z,99243.59
2022-09-27T19:38:25.849Z,99238.00
2022-09-27T19:41:28.693Z,99236.16
2022-09-27T19:44:33.148Z,99238.69
2022-09-27T19:47:35.620Z,99241.88
2022-09-27T19:50:38.104Z,99243.41
2022-09-27T19:53:40.602Z,99243.81
2022-09-27T19:56:43.095Z,99235.84
2022-09-27T19:59:46.924Z,99241.03
2022-09-27T20:02:49.632Z,99239.13
2022-09-27T20:05:55.523Z,99247.88
2022-09-27T20:08:58.588Z,99240.31
2022-09-27T20:12:01.871Z,99239.78
2022-09-27T20:15:06.868Z,99237.00
2022-09-27T20:18:09.522Z,99243.50
2022-09-27T20:21:12.596Z,99237.88
2022-09-27T20:24:15.265Z,99242.69
2022-09-27T20:27:18.030Z,99238.75
2022-09-27T20:30:21.948Z,99238.31
2022-09-27T20:33:43.769Z,99236.84
2022-09-27T20:36:46.289Z,99238.44
2022-09-27T20:39:49.216Z,99242.38
2022-09-27T20:42:51.912Z,99228.16
2022-09-27T20:46:01.394Z,99227.47
2022-09-27T20:49:06.130Z,99224.50
2022-09-27T20:52:08.623Z,99232.06
2022-09-27T20:55:11.768Z,99225.16
2022-09-27T20:58:14.376Z,99231.09
2022-09-27T21:01:19.002Z,99228.34
2022-09-27T21:04:23.369Z,99231.97
2022-09-27T21:07:26.877Z,99231.88
2022-09-27T21:10:29.439Z,99231.00
2022-09-27T21:13:32.042Z,99232.38
2022-09-27T21:16:36.423Z,99241.22
2022-09-27T21:19:39.288Z,99236.53
2022-09-27T21:22:41.984Z,99231.97
2022-09-27T21:25:44.676Z,99228.88
2022-09-27T21:28:49.099Z,99235.03
2022-09-27T21:31:53.342Z,99240.13
2022-09-27T21:34:57.288Z,99243.41
2022-09-27T21:38:00.015Z,99240.44
2022-09-27T21:41:04.541Z,99247.22
2022-09-27T21:44:07.873Z,99243.63
2022-09-27T21:47:13.391Z,99236.84
2022-09-27T21:50:16.374Z,99247.28
2022-09-27T21:53:19.293Z,99249.50
2022-09-27T21:56:22.809Z,99249.06
2022-09-27T21:59:25.548Z,99251.59
2022-09-27T22:02:30.099Z,99256.28
2022-09-27T22:05:33.531Z,99258.09
2022-09-27T22:08:36.222Z,99258.28
2022-09-27T22:11:42.782Z,99254.91
2022-09-27T22:14:45.840Z,99254.81
2022-09-27T22:17:50.049Z,99262.34
2022-09-27T22:20:52.629Z,99264.69
2022-09-27T22:23:55.950Z,99265.75
2022-09-27T22:26:58.670Z,99263.97
2022-09-27T22:30:02.171Z,99265.00
2022-09-27T22:33:06.154Z,99264.03
2022-09-27T22:36:09.201Z,99265.22
2022-09-27T22:39:12.345Z,99269.34
2022-09-27T22:42:15.046Z,99264.91
2022-09-27T22:45:18.891Z,99260.22
2022-09-27T22:48:22.831Z,99263.84
2022-09-27T22:51:25.485Z,99264.41
2022-09-27T22:54:28.156Z,99269.53
2022-09-27T22:57:30.996Z,99268.03
2022-09-27T23:00:34.353Z,99270.28
2022-09-27T23:03:38.433Z,99267.84
2022-09-27T23:06:42.671Z,99256.78
2022-09-27T23:09:45.314Z,99260.94
2022-09-27T23:12:48.198Z,99258.47
2022-09-27T23:15:51.802Z,99257.44
2022-09-27T23:18:57.801Z,99256.59
2022-09-27T23:22:00.584Z,99258.66
2022-09-27T23:25:03.275Z,99263.78
2022-09-27T23:28:05.919Z,99264.25
2022-09-27T23:31:10.052Z,99257.13
2022-09-27T23:34:15.255Z,99265.19
2022-09-27T23:37:18.301Z,99262.09
2022-09-27T23:40:20.991Z,99258.94
2022-09-27T23:43:23.799Z,99255.41
2022-09-27T23:46:26.643Z,99254.25
2022-09-27T23:49:32.263Z,99252.56
2022-09-27T23:52:34.921Z,99255.88
2022-09-27T23:55:37.458Z,99252.31
2022-09-27T23:58:42.183Z,99255.13
